Main page
METAR-TAF:

METAR-TAF

Airports :

Conakry International Airport

Conakry, Guinea

latitude: 09-34N, longitude: 013-37W, elevation: 26 m

Current weather observation

The report was made 3 hours and 50 minutes ago, at 21:00 UTC
Calm wind
Temperature 27°C
Humidity 84%
Pressure 1012 hPa
Visibility: 4000 m
mist

METAR: GUCY 152100Z 00000KT 4000 BR NSC 27/24 Q1012 NOSIG

Time: 00:50 (00:50 UTC)

Forecast

The report was made 7 hours and 50 minutes ago, at 17:00 UTC
Forecast valid from 15 at 18 UTC to 16 at 24 UTC
Wind 6 kt from the West/Northwest
Visibility: 5000 m
Few clouds at a height of 1500 ft
haze
Temporary
from 16 at 03 UTC to 16 at 09 UTC
Wind 2 kt from variable directions
Visibility: 3000 m
Scattered clouds at a height of 11000 ft
mist

TAF: GUCY 151700Z 1518/1624 30006KT 5000 HZ FEW015 TEMPO 1603/1609 VRB02KT 3000 BR SCT110

Weather observations and forecasts of more than 4000 airports (METAR and TAF reports).

The available stations are represented by yellow and red dots on the map.

Hover mouse over dot to see the name of the station.

Then click to see weather observations and forecasts.

To change the map : click on the green buttons with a black cross to zoom in, on the green button with a dash to zoom out, or on the green arrows for adjacent maps.


METAR-TAF: